Clay, Kentucky
Current Conditions -  °F | °C
As of 2:15 AM on Monday 24 Nov 2014 (Local Time) from K5M9 Reporting Station
Overcast Overcast  
Wind Chill: 59°   Ceiling: 1600
Heat Index: 59°   Visibility: 10mi
Dew Point: 57°   Wind: 8mph
Humidity: 91%   Direction: 190°S
Pressure: 29.31"   Gusts: 18mph
Location:  37.48°N, 87.82°W
Report Text: K5M9 240815Z AUTO 19007G16KT 160V220 10SM BKN016 OVC023 15/14 A2931 RMK AO2 T01520137
Loading
Personal Weather Stations






























Interactive Weather Map New forecast layout! Learn more

10-Day Weather Forecast

Advertisements
Track Severe Weather on mobile